Lebeau, Louisiana
Current Conditions -  °F | °C
As of 1:35 AM on Thursday 23 Oct 2014 (Local Time) from KOPL Reporting Station
Clear Clear  
Wind Chill: 54°   Ceiling: Unl
Heat Index: 54°   Visibility: 10mi
Dew Point: 51°   Wind: 6mph
Humidity: 89%   Direction: 20°NNE
Pressure: 30.1"   Gusts: NA
Location:  30.73°N, 91.98°W
Report Text: KOPL 230635Z AUTO 02005KT 10SM CLR 12/11 A3010 RMK AO2 T01240106
Loading
Personal Weather Stations






























Interactive Weather Map
Tropical Storm Tracking
New forecast layout! Learn more

10-Day Weather Forecast

Advertisements
Track Severe Weather on mobile